메인 페이지
METAR-TAF:

METAR-TAF

공항 :

올랜도, 플로리다, 미국

위도: 28-17-23N, 경도: 081-26-14W, 고도: 25m

현재 날씨관측

예보는 30분 전, 14:56시(UTC)에 발표되었습니다.
남서8kt
온도 29°C
습도 74%
기압 1018 hPa
시정: 16.1km
고도 1900ft 상공 구름 보통
고도 2300ft 상공 구름 많음
고도 3200ft 상공 흐림

METAR: KISM 301456Z 22008KT 10SM SCT019 BKN023 OVC032 29/24 A3005 RMK AO2 SLP176 6//// T02890239 58002 PNO $

시각: 11:26 (15:26 UTC)

예보

예보는 25분 전, 15:01시(UTC)에 발표되었습니다.
예보 대상 시간: 30일 15시부터 31일 12시까지 (UTC)
남서7kt
시정: 10km
고도 1900ft 상공 구름 보통
고도 2300ft 상공 구름 보통
고도 3500ft 상공 구름 보통
일시적
30일 15시부터 30일 16시까지 (UTC)
고도 2300ft 상공 구름 많음
고도 3500ft 상공 구름 많음
30일 1800시부터 (UTC)
서남서8kt
시정: 10km
고도 4000ft 상공 구름 보통, 적란운.
고도 7000ft 상공 구름 보통
시계 내 뇌우
일시적
30일 19시부터 30일 22시까지 (UTC)
시정: 3.2km
고도 3000ft 상공 구름 많음, 적란운.
고도 6000ft 상공 구름 많음
뇌우, 비
31일 0000시부터 (UTC)
남남서4kt
시정: 10km
고도 4500ft 상공 구름 보통
고도 12000ft 상공 구름 많음
고도 25000ft 상공 구름 많음
시계 내 소나기
31일 0200시부터 (UTC)
서남서3kt
시정: 10km
고도 3000ft 상공 구름 조금
고도 20000ft 상공 구름 보통

TAF: KISM 301501Z 3015/3112 22007KT P6SM SCT019 SCT023 SCT035 TEMPO 3015/3016 BKN023 BKN035 FM301800 25008KT P6SM VCTS SCT040CB SCT070 TEMPO 3019/3022 2SM TSRA BKN030CB BKN060 FM310000 21004KT P6SM VCSH SCT045 BKN120 BKN250 FM310200 24003KT P6SM FEW030 SCT200

4,000개 이상의 공항 관측 자료 및 예보 (METAR 및 TAF 보고).

지도상에서 검색 가능한 기상관측소가 노란 점과 빨간 점으로 표시되어 있습니다.

기상관측소 명을 보려면 표시 위로 마우스를 이동하세요.

날씨 관측과 예보를 보려면 클릭하세요.

지도 변경 : 확대하려면 엑스 표시가 있는 녹색 버튼, 축소하려면 빼기 표시가 있는 녹색 버튼, 다음 페이지의 지도를 보려면 녹색 화살표를 클릭하세요.


METAR-TAF: